Time;durP1;ratioP1;P1;durP2;ratioP2;P2;SDS_P1;SDS_P2;PMS_P1;PMS_P2;Temp;Humidity;BMP_temperature;BMP_pressure;BME280_temperature;BME280_humidity;BME280_pressure;Samples;Min_cycle;Max_cycle;Signal;HPM_P1;HPM_P2
2022/12/30 00:01:34;;;;;;;;;5.33;4.67;;;;;10.84;73.84;-19501.88;4863266;29;45269;-94
2022/12/30 00:03:59;;;;;;;;;3.33;3.33;;;;;10.35;73.72;-19488.94;4859235;29;45520;-95
2022/12/30 00:06:25;;;;;;;;;3.00;3.00;;;;;9.60;73.93;-19469.09;4849827;29;45619;-95
2022/12/30 00:08:54;;;;;;;;;7.00;6.00;;;;;10.22;74.07;-19485.56;4858046;29;45303;-94
2022/12/30 00:11:22;;;;;;;;;6.33;4.33;;;;;11.11;74.04;-19509.03;4851645;29;45413;-96
2022/12/30 00:34:16;;;;;;;;;11.75;10.25;;;;;11.01;74.75;-19506.19;4855488;29;45491;-96
2022/12/30 00:36:42;;;;;;;;;10.25;10.25;;;;;10.74;74.58;-19499.19;4862069;29;45399;-94
2022/12/30 00:39:08;;;;;;;;;15.75;14.00;;;;;10.95;74.72;-19504.84;4865448;29;45428;-94
2022/12/30 00:44:20;;;;;;;;;8.50;8.50;;;;;10.77;74.83;-19500.00;4850732;29;45399;-94
2022/12/30 00:46:46;;;;;;;;;8.33;8.33;;;;;9.99;74.29;-19479.47;4863360;29;45463;-96
2022/12/30 00:58:09;;;;;;;;;11.00;8.00;;;;;9.88;74.61;-19476.66;4850788;29;45537;-95
2022/12/30 01:00:35;;;;;;;;;9.00;9.00;;;;;9.92;74.81;-19477.72;4850190;29;46268;-94
2022/12/30 01:03:09;;;;;;;;;11.25;11.25;;;;;9.03;74.88;-19454.22;4872498;29;45451;-95
2022/12/30 01:05:38;;;;;;;;;10.50;9.75;;;;;8.74;74.81;-19446.41;4864028;29;45483;-96
2022/12/30 01:08:03;;;;;;;;;8.50;8.50;;;;;9.41;74.94;-19464.22;4868672;29;45739;-95
2022/12/30 01:10:29;;;;;;;;;11.25;9.75;;;;;10.13;75.19;-19483.25;4835545;29;45505;-93
2022/12/30 01:12:54;;;;;;;;;9.00;9.00;;;;;9.56;75.07;-19468.00;4846079;29;45895;-94
2022/12/30 01:15:20;;;;;;;;;9.67;9.67;;;;;10.29;75.14;-19487.44;4863877;29;45510;-94
2022/12/30 01:17:45;;;;;;;;;9.00;8.00;;;;;10.54;75.17;-19494.06;4848401;29;45400;-94
2022/12/30 01:20:11;;;;;;;;;14.25;13.25;;;;;9.80;75.39;-19474.34;4852008;29;45508;-94
2022/12/30 01:22:36;;;;;;;;;20.25;16.75;;;;;10.43;75.56;-19491.09;4859588;29;45474;-94
2022/12/30 01:25:02;;;;;;;;;18.00;16.50;;;;;8.57;75.62;-19442.06;4838226;29;46008;-94
2022/12/30 01:28:01;;;;;;;;;14.00;14.00;;;;;10.61;75.64;-19495.69;4854496;29;45598;-94
2022/12/30 01:30:26;;;;;;;;;18.75;17.50;;;;;9.43;75.58;-19464.78;4845751;29;48267;-94
2022/12/30 01:32:52;;;;;;;;;23.75;23.00;;;;;9.91;75.60;-19477.47;4863065;29;45525;-94
2022/12/30 01:35:17;;;;;;;;;20.50;20.50;;;;;9.79;75.45;-19474.09;4854590;29;45524;-93
2022/12/30 01:37:42;;;;;;;;;23.50;23.50;;;;;9.66;75.74;-19470.84;4872849;29;45435;-94
2022/12/30 01:40:08;;;;;;;;;21.75;21.75;;;;;10.64;75.84;-19496.63;4859127;29;46680;-94
2022/12/30 01:42:40;;;;;;;;;27.25;25.50;;;;;10.62;75.88;-19495.94;4844458;29;46548;-94
2022/12/30 01:45:30;;;;;;;;;24.75;24.75;;;;;10.42;76.07;-19490.69;4850289;29;45478;-96
2022/12/30 01:48:10;;;;;;;;;24.00;24.00;;;;;10.06;76.16;-19481.25;4860228;29;45343;-93
2022/12/30 01:50:47;;;;;;;;;22.00;22.00;;;;;10.60;76.07;-19495.41;4856113;29;45652;-93
2022/12/30 01:53:16;;;;;;;;;26.50;23.75;;;;;10.60;76.05;-19495.53;4865482;29;45285;-94
2022/12/30 01:55:54;;;;;;;;;27.25;27.00;;;;;10.61;76.11;-19495.69;4862130;29;45613;-95
2022/12/30 01:58:33;;;;;;;;;25.50;25.50;;;;;9.83;76.15;-19475.31;4864402;29;45526;-94
2022/12/30 02:00:58;;;;;;;;;23.25;23.25;;;;;10.26;75.79;-19486.50;4836591;29;47311;-95
2022/12/30 02:03:29;;;;;;;;;27.00;24.75;;;;;10.27;76.11;-19486.78;4845699;29;45309;-93
2022/12/30 02:05:54;;;;;;;;;29.00;27.00;;;;;9.75;75.97;-19473.00;4864939;29;45499;-94
2022/12/30 02:08:21;;;;;;;;;29.25;27.50;;;;;10.37;76.01;-19489.47;4866858;29;45347;-95
2022/12/30 02:10:57;;;;;;;;;27.75;24.50;;;;;9.29;75.92;-19460.97;4859591;29;46650;-95
2022/12/30 02:13:56;;;;;;;;;23.50;23.50;;;;;10.38;76.30;-19489.63;4853209;29;45542;-94
2022/12/30 02:16:29;;;;;;;;;20.50;18.25;;;;;10.35;76.32;-19488.94;4841169;29;45393;-94
2022/12/30 02:19:13;;;;;;;;;19.75;18.00;;;;;9.06;76.66;-19454.91;4865426;29;45526;-94
2022/12/30 02:21:45;;;;;;;;;24.25;22.50;;;;;10.33;76.62;-19488.41;4862411;29;46552;-93
2022/12/30 02:24:15;;;;;;;;;25.50;24.00;;;;;10.33;76.90;-19488.41;4865358;29;45458;-95
2022/12/30 02:27:00;;;;;;;;;28.00;28.00;;;;;10.32;76.89;-19488.25;4848305;29;45494;-93
2022/12/30 02:29:48;;;;;;;;;26.50;26.25;;;;;10.01;76.86;-19479.88;4865566;29;45396;-95
2022/12/30 02:32:52;;;;;;;;;30.25;30.00;;;;;10.32;77.09;-19488.13;4880633;23;45744;-94
2022/12/30 02:35:55;;;;;;;;;25.50;25.50;;;;;10.30;77.01;-19487.59;4842464;29;45536;-94
2022/12/30 02:38:53;;;;;;;;;16.25;16.25;;;;;10.29;77.15;-19487.44;4851777;29;45707;-94
2022/12/30 02:44:55;;;;;;;;;13.25;12.00;;;;;9.98;77.56;-19479.22;4839384;23;45720;-95
2022/12/30 02:47:28;;;;;;;;;13.00;12.75;;;;;9.56;77.46;-19468.00;4846584;29;46211;-93
2022/12/30 02:52:51;;;;;;;;;13.25;11.00;;;;;10.03;77.50;-19480.56;4864255;29;45467;-93
2022/12/30 02:55:17;;;;;;;;;17.00;17.00;;;;;10.04;77.76;-19480.84;4880498;23;46815;-94
2022/12/30 02:57:43;;;;;;;;;19.00;15.00;;;;;10.29;77.75;-19487.31;4863183;29;45850;-94
2022/12/30 03:06:07;;;;;;;;;9.75;9.75;;;;;10.33;77.97;-19488.53;4881039;29;45639;-94
2022/12/30 03:08:47;;;;;;;;;9.50;8.00;;;;;9.09;78.06;-19455.72;4880780;29;46109;-93
2022/12/30 03:11:20;;;;;;;;;10.00;9.00;;;;;9.69;78.14;-19471.53;4882513;28;45395;-94
2022/12/30 03:16:54;;;;;;;;;12.00;9.67;;;;;10.07;78.47;-19481.66;5256201;23;45395;-85
2022/12/30 03:19:23;;;;;;;;;7.67;7.33;;;;;10.20;78.21;-19485.03;4858047;29;45425;-85
2022/12/30 03:21:52;;;;;;;;;8.00;8.00;;;;;9.86;78.29;-19476.13;4841460;29;45467;-85
2022/12/30 03:27:09;;;;;;;;;9.67;8.33;;;;;10.17;78.41;-19484.22;4850081;29;45485;-85
2022/12/30 03:29:41;;;;;;;;;10.00;8.33;;;;;10.26;78.52;-19486.50;4852984;29;45353;-84
2022/12/30 03:32:10;;;;;;;;;10.67;6.67;;;;;10.34;78.60;-19488.66;4844264;29;45539;-85
2022/12/30 03:34:36;;;;;;;;;7.33;7.00;;;;;10.19;78.39;-19484.63;4837178;29;45397;-85
2022/12/30 03:37:36;;;;;;;;;8.33;7.67;;;;;9.65;78.58;-19470.56;4842045;29;46068;-86
2022/12/30 03:40:10;;;;;;;;;8.00;7.67;;;;;9.79;78.90;-19474.22;4839207;29;45900;-86
2022/12/30 03:42:36;;;;;;;;;11.67;9.00;;;;;9.30;78.96;-19461.41;4843040;29;45466;-83
2022/12/30 03:45:03;;;;;;;;;9.33;8.67;;;;;10.38;78.77;-19489.75;4862657;29;45595;-82
2022/12/30 03:47:28;;;;;;;;;9.67;9.67;;;;;10.31;79.00;-19487.84;4849163;29;45687;-83
2022/12/30 03:49:53;;;;;;;;;6.67;6.67;;;;;10.22;78.90;-19485.56;4859695;29;45457;-83
2022/12/30 03:52:20;;;;;;;;;5.67;5.67;;;;;10.11;78.71;-19482.72;4863424;29;45370;-83
2022/12/30 03:54:47;;;;;;;;;9.00;7.33;;;;;10.37;78.52;-19489.34;4862861;29;45426;-83
2022/12/30 03:57:12;;;;;;;;;8.00;6.00;;;;;10.30;79.14;-19487.59;4855052;29;47364;-85
2022/12/30 03:59:38;;;;;;;;;5.00;5.00;;;;;10.10;79.06;-19482.47;4860910;29;45779;-85
2022/12/30 04:02:03;;;;;;;;;7.00;6.67;;;;;10.25;78.91;-19486.38;4861979;29;45511;-85
2022/12/30 04:04:28;;;;;;;;;6.67;4.00;;;;;10.17;79.18;-19484.22;4846204;29;45507;-85
2022/12/30 04:06:54;;;;;;;;;4.33;4.33;;;;;9.22;78.99;-19459.09;4858430;29;45832;-84
2022/12/30 04:09:19;;;;;;;;;5.67;4.33;;;;;9.73;78.95;-19472.59;4851198;29;45449;-86
2022/12/30 04:11:44;;;;;;;;;5.00;5.00;;;;;9.94;79.53;-19478.13;4862971;29;45390;-86
2022/12/30 04:14:10;;;;;;;;;6.33;5.00;;;;;10.38;79.62;-19489.63;4860613;29;45416;-86
2022/12/30 04:16:36;;;;;;;;;5.00;4.00;;;;;10.39;79.83;-19489.88;4861645;29;45496;-84
2022/12/30 04:19:02;;;;;;;;;9.00;6.00;;;;;8.95;79.79;-19452.06;4851918;29;45428;-85
2022/12/30 04:21:27;;;;;;;;;6.00;6.00;;;;;9.82;79.86;-19475.03;4841517;29;45311;-85
2022/12/30 04:23:52;;;;;;;;;7.00;6.00;;;;;10.35;80.00;-19488.94;4854964;29;45372;-84
2022/12/30 04:26:18;;;;;;;;;4.33;4.33;;;;;10.23;80.04;-19485.69;4842782;29;48174;-85
2022/12/30 04:28:43;;;;;;;;;5.33;5.00;;;;;9.45;80.41;-19465.31;4840598;29;45758;-87
2022/12/30 04:31:08;;;;;;;;;6.00;5.67;;;;;10.33;80.58;-19488.53;4843967;29;45486;-87
2022/12/30 04:33:34;;;;;;;;;6.67;6.67;;;;;9.80;80.77;-19474.34;4856340;29;45562;-89
2022/12/30 04:35:59;;;;;;;;;6.50;6.50;;;;;10.35;80.70;-19489.06;4859599;29;45468;-87
2022/12/30 04:38:24;;;;;;;;;4.67;4.67;;;;;10.27;80.55;-19486.91;4856307;29;45542;-87
2022/12/30 04:40:50;;;;;;;;;6.67;6.67;;;;;9.90;80.96;-19477.06;4844788;29;45298;-89
2022/12/30 04:43:15;;;;;;;;;10.00;7.00;;;;;10.06;80.94;-19481.38;4856032;29;45498;-88
2022/12/30 04:45:41;;;;;;;;;7.00;5.33;;;;;9.81;81.20;-19474.75;4854230;29;45590;-89
2022/12/30 04:48:06;;;;;;;;;7.00;7.00;;;;;9.78;80.77;-19473.81;4850625;29;45450;-88
2022/12/30 04:50:31;;;;;;;;;9.00;8.00;;;;;9.80;81.02;-19474.34;4848730;29;45682;-91
2022/12/30 04:52:57;;;;;;;;;10.67;5.67;;;;;9.64;81.30;-19470.16;4857687;29;45383;-90
2022/12/30 04:55:22;;;;;;;;;6.33;6.33;;;;;9.50;81.39;-19466.66;4846741;29;48470;-90
2022/12/30 04:57:48;;;;;;;;;7.33;6.33;;;;;9.61;81.33;-19469.50;4846894;29;45935;-93
2022/12/30 05:00:13;;;;;;;;;7.67;6.00;;;;;9.71;81.25;-19472.19;4854882;29;45455;-92
2022/12/30 05:02:39;;;;;;;;;9.00;7.00;;;;;9.57;81.23;-19468.28;4849420;29;45480;-89
2022/12/30 05:05:05;;;;;;;;;4.00;4.00;;;;;10.16;81.52;-19483.94;4853268;29;46226;-90
2022/12/30 05:07:31;;;;;;;;;6.33;6.33;;;;;9.40;81.82;-19463.81;4850177;29;45568;-89
2022/12/30 05:09:56;;;;;;;;;8.33;6.67;;;;;9.85;82.08;-19475.84;4842207;29;45582;-89
2022/12/30 05:12:21;;;;;;;;;11.00;8.00;;;;;9.57;82.22;-19468.41;4843290;29;45675;-90
2022/12/30 05:14:47;;;;;;;;;9.33;8.00;;;;;9.94;82.26;-19478.13;4842809;29;48221;-89
2022/12/30 05:17:12;;;;;;;;;7.67;6.00;;;;;9.40;82.48;-19463.81;4838787;29;45682;-89
2022/12/30 05:19:38;;;;;;;;;8.00;8.00;;;;;9.85;82.37;-19475.72;4859481;29;46327;-90
2022/12/30 05:22:03;;;;;;;;;8.00;7.00;;;;;9.12;82.51;-19456.41;4853425;29;45274;-89
2022/12/30 05:27:12;;;;;;;;;7.00;7.00;;;;;9.38;83.31;-19463.41;4856796;29;45800;-89
2022/12/30 05:29:38;;;;;;;;;7.33;6.33;;;;;10.03;83.42;-19480.44;4859895;29;45319;-89
2022/12/30 05:32:03;;;;;;;;;4.00;4.00;;;;;9.66;82.92;-19470.84;4851195;29;45619;-89
2022/12/30 05:34:29;;;;;;;;;5.67;5.67;;;;;10.09;83.32;-19482.06;4844882;29;47109;-89
2022/12/30 05:36:54;;;;;;;;;5.00;5.00;;;;;9.82;83.50;-19475.03;4838190;29;45908;-89
2022/12/30 05:39:20;;;;;;;;;3.33;3.33;;;;;9.89;83.84;-19476.91;4847271;29;45338;-90
2022/12/30 05:41:45;;;;;;;;;3.67;3.67;;;;;9.72;83.94;-19472.47;4842716;29;45568;-90
2022/12/30 05:44:10;;;;;;;;;4.67;4.67;;;;;9.76;83.90;-19473.41;4843780;29;47626;-90
2022/12/30 05:46:36;;;;;;;;;2.67;2.67;;;;;10.35;83.56;-19489.06;4833295;29;45646;-90
2022/12/30 05:49:02;;;;;;;;;4.00;4.00;;;;;10.21;83.56;-19485.28;4840178;29;45540;-88
2022/12/30 05:51:27;;;;;;;;;3.67;3.67;;;;;10.44;83.57;-19491.38;4841006;29;45685;-88
2022/12/30 05:53:53;;;;;;;;;2.67;2.67;;;;;10.45;83.22;-19491.63;4844399;29;48122;-88
2022/12/30 05:56:18;;;;;;;;;3.00;3.00;;;;;9.83;83.24;-19475.16;4836648;29;45500;-87
2022/12/30 05:58:43;;;;;;;;;3.33;3.33;;;;;10.11;83.31;-19482.72;4840313;29;45591;-89
2022/12/30 06:01:09;;;;;;;;;3.00;3.00;;;;;10.25;83.31;-19486.22;4837349;29;45686;-87
2022/12/30 06:03:35;;;;;;;;;2.67;2.67;;;;;9.75;83.43;-19473.00;4853425;29;45461;-87
2022/12/30 06:06:07;;;;;;;;;2.00;2.00;;;;;9.83;83.22;-19475.16;4854367;29;45549;-87
2022/12/30 06:08:33;;;;;;;;;2.33;2.33;;;;;10.53;83.17;-19493.66;4843079;29;45503;-85
2022/12/30 06:10:58;;;;;;;;;3.00;3.00;;;;;9.92;83.20;-19477.72;4852280;29;46960;-86
2022/12/30 06:13:24;;;;;;;;;2.00;2.00;;;;;10.59;83.03;-19495.16;4850587;29;45907;-86
2022/12/30 06:15:50;;;;;;;;;2.33;2.33;;;;;10.62;82.78;-19495.94;4855402;29;45589;-85
2022/12/30 06:18:16;;;;;;;;;3.00;3.00;;;;;10.13;82.94;-19483.13;4856517;29;45552;-85
2022/12/30 06:20:42;;;;;;;;;3.00;3.00;;;;;10.55;82.84;-19494.19;4857536;29;45424;-84
2022/12/30 06:23:08;;;;;;;;;2.00;2.00;;;;;10.40;82.91;-19490.16;4857735;29;46419;-86
2022/12/30 06:25:33;;;;;;;;;2.00;2.00;;;;;9.87;82.78;-19476.38;4858410;29;45361;-86
2022/12/30 06:27:58;;;;;;;;;3.67;3.67;;;;;10.10;83.24;-19482.31;4858949;29;45585;-84
2022/12/30 06:30:24;;;;;;;;;2.00;2.00;;;;;10.38;82.89;-19489.63;4861306;29;45291;-85
2022/12/30 06:32:49;;;;;;;;;2.67;2.67;;;;;10.58;83.32;-19495.00;4853409;29;46534;-84
2022/12/30 06:35:14;;;;;;;;;1.67;1.67;;;;;10.78;83.23;-19500.41;4860370;29;46147;-85
2022/12/30 06:37:40;;;;;;;;;2.00;2.00;;;;;10.46;83.43;-19491.91;4860820;29;45433;-84
2022/12/30 06:40:06;;;;;;;;;3.00;3.00;;;;;10.82;83.42;-19501.34;4847365;29;45480;-84
2022/12/30 06:42:32;;;;;;;;;2.00;2.00;;;;;10.56;83.05;-19494.59;4853020;29;46721;-85
2022/12/30 06:44:57;;;;;;;;;2.00;2.00;;;;;10.96;83.17;-19505.00;4846553;29;45731;-84
2022/12/30 06:47:23;;;;;;;;;2.67;2.67;;;;;10.77;83.01;-19500.00;4843834;29;46158;-84
2022/12/30 06:49:48;;;;;;;;;2.67;2.67;;;;;10.40;83.03;-19490.16;4851008;29;45483;-84
2022/12/30 06:52:14;;;;;;;;;2.00;2.00;;;;;10.51;83.25;-19493.25;4850070;29;46462;-84
2022/12/30 06:54:40;;;;;;;;;2.00;2.00;;;;;10.61;82.72;-19495.81;4853738;29;45516;-84
2022/12/30 06:57:05;;;;;;;;;2.00;2.00;;;;;11.05;83.09;-19507.41;4833456;29;45501;-84
2022/12/30 06:59:30;;;;;;;;;3.00;3.00;;;;;10.38;83.35;-19489.63;4853800;29;45382;-84
2022/12/30 07:01:56;;;;;;;;;2.00;2.00;;;;;10.77;82.83;-19500.00;4857244;29;45577;-84
2022/12/30 07:04:21;;;;;;;;;1.00;1.00;;;;;10.72;83.01;-19498.78;4863182;29;45412;-84
2022/12/30 07:06:46;;;;;;;;;2.00;2.00;;;;;10.97;82.99;-19505.41;4835485;29;45254;-84
2022/12/30 07:09:12;;;;;;;;;3.67;2.00;;;;;11.13;82.84;-19509.56;4851435;29;45567;-84
2022/12/30 07:11:37;;;;;;;;;1.67;1.67;;;;;10.90;82.81;-19503.50;4844368;29;46878;-84
2022/12/30 07:14:02;;;;;;;;;1.00;1.00;;;;;11.20;82.72;-19511.31;4859048;29;46072;-84
2022/12/30 07:16:28;;;;;;;;;3.33;2.00;;;;;11.07;82.52;-19507.81;4859685;29;45804;-83
2022/12/30 07:18:53;;;;;;;;;2.33;2.33;;;;;10.79;82.64;-19500.53;4837254;29;45416;-84
2022/12/30 07:21:19;;;;;;;;;2.00;2.00;;;;;10.79;82.47;-19500.53;4851682;29;46223;-84
2022/12/30 07:23:44;;;;;;;;;2.33;2.33;;;;;11.05;82.20;-19507.28;4849312;29;45496;-83
2022/12/30 07:26:10;;;;;;;;;1.33;1.33;;;;;10.56;81.94;-19494.47;4854416;29;45802;-84
2022/12/30 07:28:35;;;;;;;;;2.00;2.00;;;;;11.08;81.73;-19508.22;4837419;29;45374;-85
2022/12/30 07:31:00;;;;;;;;;1.67;1.67;;;;;10.89;81.78;-19503.09;4853163;29;45315;-85
2022/12/30 07:33:26;;;;;;;;;1.00;1.00;;;;;10.87;81.63;-19502.69;4849545;29;45418;-85
2022/12/30 07:35:51;;;;;;;;;2.00;2.00;;;;;10.92;81.64;-19503.91;4842597;29;45559;-85
2022/12/30 07:38:16;;;;;;;;;1.33;1.33;;;;;11.49;81.56;-19518.88;4841558;29;45598;-85
2022/12/30 07:40:42;;;;;;;;;1.00;1.00;;;;;11.11;81.52;-19509.03;4848723;29;45793;-86
2022/12/30 07:43:07;;;;;;;;;1.67;1.67;;;;;11.10;81.18;-19508.75;4851061;29;45643;-85
2022/12/30 07:45:32;;;;;;;;;2.00;2.00;;;;;10.88;81.02;-19502.84;4848603;29;45631;-84
2022/12/30 07:47:58;;;;;;;;;3.00;3.00;;;;;10.70;81.22;-19498.25;4849609;29;45628;-84
2022/12/30 07:50:24;;;;;;;;;5.33;3.67;;;;;11.34;81.19;-19515.09;4846288;29;45504;-85
2022/12/30 07:52:50;;;;;;;;;0.33;0.33;;;;;10.95;80.65;-19504.72;4837034;29;45592;-85
2022/12/30 07:55:15;;;;;;;;;4.00;2.67;;;;;11.60;81.22;-19521.97;4843442;29;45785;-83
2022/12/30 07:57:40;;;;;;;;;0.00;0.00;;;;;11.37;80.85;-19515.91;4856641;29;45555;-84
2022/12/30 08:00:09;;;;;;;;;4.33;4.33;;;;;11.48;80.89;-19518.59;4839424;29;47554;-86
2022/12/30 08:02:35;;;;;;;;;4.33;2.00;;;;;11.27;80.48;-19513.22;4836799;29;45525;-85
2022/12/30 08:05:00;;;;;;;;;4.00;3.00;;;;;10.93;80.49;-19504.19;4853297;29;45472;-84
2022/12/30 08:07:25;;;;;;;;;2.00;2.00;;;;;11.16;80.39;-19510.25;4855553;29;45498;-86
2022/12/30 08:09:51;;;;;;;;;3.00;2.00;;;;;10.80;80.53;-19500.81;4851649;29;46032;-85
2022/12/30 08:12:16;;;;;;;;;3.00;3.00;;;;;11.39;80.49;-19516.31;4851225;29;45337;-89
2022/12/30 08:14:41;;;;;;;;;3.00;2.00;;;;;9.91;80.08;-19477.47;4835088;29;45562;-86
2022/12/30 08:17:07;;;;;;;;;3.67;2.00;;;;;11.40;80.64;-19516.72;4837563;29;45687;-85
2022/12/30 08:19:32;;;;;;;;;3.67;3.67;;;;;11.23;80.68;-19512.13;4854170;29;46196;-86
2022/12/30 08:21:57;;;;;;;;;2.33;2.33;;;;;11.79;81.00;-19526.81;4853828;29;45465;-86
2022/12/30 08:24:23;;;;;;;;;2.67;2.67;;;;;11.34;81.94;-19515.09;4861182;29;45441;-86
2022/12/30 08:26:49;;;;;;;;;2.67;2.67;;;;;11.05;82.69;-19507.41;4849067;29;46395;-85
2022/12/30 08:29:14;;;;;;;;;1.00;1.00;;;;;11.78;83.35;-19526.69;4847315;29;46353;-90
2022/12/30 08:31:39;;;;;;;;;1.67;1.67;;;;;11.23;84.32;-19512.13;4847441;29;45576;-91
2022/12/30 08:34:05;;;;;;;;;1.00;1.00;;;;;11.40;84.07;-19516.59;4856742;29;46680;-90
2022/12/30 08:36:30;;;;;;;;;0.00;0.00;;;;;11.56;85.06;-19520.75;4842785;29;45348;-90
2022/12/30 08:39:00;;;;;;;;;1.00;1.00;;;;;11.61;85.75;-19522.09;4860190;29;46020;-91
2022/12/30 08:41:25;;;;;;;;;3.00;1.67;;;;;11.55;86.05;-19520.63;4854733;29;45240;-91
2022/12/30 08:43:51;;;;;;;;;2.00;1.00;;;;;10.77;86.66;-18862.06;4855529;29;45612;-91
2022/12/30 08:46:18;;;;;;;;;2.00;0.67;;;;;11.35;87.76;-16986.59;4855420;29;45627;-94
2022/12/30 08:48:44;;;;;;;;;4.67;2.00;;;;;11.13;88.69;-12702.38;4843976;29;47959;-95
2022/12/30 08:51:10;;;;;;;;;1.67;1.00;;;;;11.24;89.79;-8286.97;4844779;29;45345;-96
2022/12/30 08:53:36;;;;;;;;;3.00;2.00;;;;;11.15;89.56;-9407.00;4858286;29;45406;-96
2022/12/30 08:56:12;;;;;;;;;1.33;1.00;;;;;11.09;90.92;-4389.22;4855994;29;44894;-96
2022/12/30 08:58:37;;;;;;;;;1.00;1.00;;;;;10.50;91.22;-2869.72;4876927;29;46381;-92
2022/12/30 09:01:30;;;;;;;;;3.00;1.00;;;;;10.34;92.87;4182.53;4836073;29;45360;-88
2022/12/30 09:03:56;;;;;;;;;2.00;2.00;;;;;10.30;97.35;17800.00;4840899;29;45481;-91
2022/12/30 09:06:24;;;;;;;;;1.67;0.67;;;;;10.78;100.00;35243.50;4834460;29;45697;-89
2022/12/30 09:08:51;;;;;;;;;1.00;1.00;;;;;10.47;100.00;43757.72;4841942;29;47695;-89
2022/12/30 09:11:23;;;;;;;;;2.33;1.67;;;;;9.14;100.00;47730.22;4841017;29;46174;-91
2022/12/30 09:13:48;;;;;;;;;4.67;2.33;;;;;9.08;100.00;46065.13;4855550;29;45277;-93
2022/12/30 09:16:21;;;;;;;;;1.33;1.33;;;;;10.05;100.00;55688.88;4848098;29;45429;-91
2022/12/30 09:18:46;;;;;;;;;1.00;1.00;;;;;10.71;100.00;67234.28;4855786;29;46254;-89
2022/12/30 09:21:12;;;;;;;;;2.00;1.33;;;;;10.18;100.00;69292.97;4833515;29;45592;-89
2022/12/30 09:23:37;;;;;;;;;3.00;1.00;;;;;10.20;100.00;61785.88;4841225;29;45541;-87
2022/12/30 09:26:05;;;;;;;;;1.00;1.00;;;;;10.72;100.00;56258.97;4839132;29;45478;-88
2022/12/30 09:28:30;;;;;;;;;1.00;1.00;;;;;10.57;100.00;50195.06;4850869;29;45454;-89
2022/12/30 09:30:56;;;;;;;;;5.00;4.00;;;;;10.48;100.00;46641.34;4850185;29;45462;-91
2022/12/30 09:33:21;;;;;;;;;3.33;3.33;;;;;10.64;100.00;43844.47;4842943;29;45498;-90
2022/12/30 09:35:46;;;;;;;;;1.33;1.33;;;;;10.41;100.00;40935.63;4842885;29;45433;-88
2022/12/30 09:38:12;;;;;;;;;3.00;3.00;;;;;10.56;100.00;39749.56;4843626;29;47202;-89
2022/12/30 09:40:52;;;;;;;;;2.33;1.00;;;;;10.24;100.00;37270.28;4855039;29;45588;-92
2022/12/30 09:43:53;;;;;;;;;1.00;1.00;;;;;10.76;100.00;36564.19;4845741;29;45602;-91
2022/12/30 09:46:24;;;;;;;;;1.00;1.00;;;;;10.78;100.00;38885.66;4838646;29;46444;-91
2022/12/30 09:48:57;;;;;;;;;2.00;2.00;;;;;10.83;100.00;40361.81;4855621;29;47137;-89
2022/12/30 09:51:28;;;;;;;;;1.00;1.00;;;;;10.74;100.00;40723.34;4849067;29;45502;-91
2022/12/30 09:54:00;;;;;;;;;2.00;2.00;;;;;10.92;100.00;40922.53;4837832;29;45441;-90
2022/12/30 09:56:30;;;;;;;;;2.00;2.00;;;;;10.53;100.00;40652.97;4836754;29;45439;-89
2022/12/30 09:59:01;;;;;;;;;1.00;1.00;;;;;10.50;100.00;37840.78;4850546;29;45429;-88
2022/12/30 10:01:33;;;;;;;;;2.67;0.00;;;;;10.97;100.00;39681.09;4849619;29;45332;-86
2022/12/30 10:04:00;;;;;;;;;2.00;2.00;;;;;10.97;100.00;42307.97;4855783;29;46143;-87
2022/12/30 10:06:28;;;;;;;;;2.00;2.00;;;;;11.01;100.00;41409.56;4861611;29;45503;-89
2022/12/30 10:09:19;;;;;;;;;2.33;2.00;;;;;11.04;100.00;39940.50;4843848;29;49133;-87
2022/12/30 10:11:48;;;;;;;;;2.33;1.00;;;;;11.07;100.00;39128.00;4842553;29;45479;-92
2022/12/30 10:14:21;;;;;;;;;1.33;1.00;;;;;10.94;100.00;38654.53;4844318;29;45754;-85
2022/12/30 10:17:23;;;;;;;;;2.00;2.00;;;;;11.07;100.00;38807.59;4851404;29;45609;-85
2022/12/30 10:20:11;;;;;;;;;2.00;2.00;;;;;10.46;100.00;37882.66;4839606;29;47335;-86
2022/12/30 10:22:39;;;;;;;;;0.67;0.67;;;;;11.14;100.00;38594.81;4852547;29;45846;-86
2022/12/30 10:25:38;;;;;;;;;1.00;1.00;;;;;11.21;100.00;38586.16;4853193;29;45515;-84
2022/12/30 10:28:09;;;;;;;;;1.00;1.00;;;;;10.89;100.00;38325.91;4852532;29;45612;-86
2022/12/30 10:30:43;;;;;;;;;0.67;0.67;;;;;11.01;100.00;36314.88;4857305;29;46311;-89
2022/12/30 10:33:18;;;;;;;;;0.00;0.00;;;;;11.01;100.00;37089.09;4837552;29;45735;-90
2022/12/30 10:35:45;;;;;;;;;0.00;0.00;;;;;11.46;100.00;37987.88;4847555;29;45453;-88
2022/12/30 10:38:17;;;;;;;;;0.67;0.00;;;;;11.54;100.00;39029.09;4842872;29;45421;-88
2022/12/30 10:41:01;;;;;;;;;0.00;0.00;;;;;11.35;100.00;36481.47;4836441;29;47615;-87
2022/12/30 10:43:44;;;;;;;;;1.00;1.00;;;;;11.71;100.00;35398.09;4850190;29;45466;-84
2022/12/30 10:46:13;;;;;;;;;2.00;2.00;;;;;11.79;100.00;35658.31;4841322;29;45930;-82
2022/12/30 10:48:59;;;;;;;;;2.33;1.00;;;;;11.86;100.00;35289.41;4856894;29;45616;-83
2022/12/30 10:51:26;;;;;;;;;2.00;1.00;;;;;11.43;100.00;33947.41;4848670;29;45455;-83
2022/12/30 10:53:53;;;;;;;;;0.00;0.00;;;;;11.99;100.00;32295.34;4855634;29;45489;-84
2022/12/30 10:56:28;;;;;;;;;0.00;0.00;;;;;11.71;99.92;31129.59;4858927;29;45538;-84
2022/12/30 10:59:04;;;;;;;;;4.67;4.67;;;;;11.61;100.00;31531.16;4852449;29;45437;-84
2022/12/30 11:01:33;;;;;;;;;0.00;0.00;;;;;11.80;99.76;29933.03;4852623;29;45349;-84
2022/12/30 11:03:59;;;;;;;;;0.67;0.67;;;;;12.02;99.48;28813.88;4833712;29;45639;-81
2022/12/30 11:06:31;;;;;;;;;0.00;0.00;;;;;12.34;99.03;27602.00;4847171;29;45367;-82
2022/12/30 11:09:11;;;;;;;;;0.00;0.00;;;;;12.37;98.77;25428.69;4847194;29;45297;-82
2022/12/30 11:14:45;;;;;;;;;1.00;0.00;;;;;12.49;98.42;23462.19;4785933;29;45749;-82
2022/12/30 11:17:46;;;;;;;;;0.00;0.00;;;;;12.54;98.48;23653.19;4796621;29;46711;-85
2022/12/30 11:20:32;;;;;;;;;1.67;1.67;;;;;12.60;98.64;23529.97;4795575;29;45831;-84
2022/12/30 11:23:02;;;;;;;;;0.00;0.00;;;;;12.68;98.46;22927.66;4794505;29;48081;-86
2022/12/30 11:25:33;;;;;;;;;0.00;0.00;;;;;12.74;97.90;21414.28;4796527;29;45409;-85
2022/12/30 11:28:07;;;;;;;;;0.67;0.00;;;;;12.75;98.37;22002.16;4802003;29;45810;-86
2022/12/30 11:31:07;;;;;;;;;0.33;0.33;;;;;12.86;98.43;22693.66;4781951;29;45526;-85
2022/12/30 11:33:39;;;;;;;;;0.00;0.00;;;;;12.88;97.99;21519.78;4765520;29;46447;-85
2022/12/30 11:36:15;;;;;;;;;0.00;0.00;;;;;12.71;100.00;29669.00;4764970;29;45540;-84
2022/12/30 11:38:42;;;;;;;;;0.00;0.00;;;;;12.85;98.67;26626.91;4759662;29;45652;-87
2022/12/30 11:41:20;;;;;;;;;0.00;0.00;;;;;13.06;98.06;22791.16;4765545;29;45445;-85
2022/12/30 11:44:13;;;;;;;;;3.00;3.00;;;;;12.80;98.28;22754.25;4763878;29;46405;-89
2022/12/30 11:46:40;;;;;;;;;0.00;0.00;;;;;12.67;97.88;21414.28;4757111;29;47073;-88
2022/12/30 11:49:17;;;;;;;;;0.00;0.00;;;;;13.02;98.36;21755.88;4759229;29;45921;-87
2022/12/30 11:51:55;;;;;;;;;0.00;0.00;;;;;13.18;97.25;19420.25;4774263;29;45727;-88
2022/12/30 11:54:24;;;;;;;;;0.00;0.00;;;;;13.02;97.64;19225.75;4785667;29;46726;-88
2022/12/30 11:57:06;;;;;;;;;0.00;0.00;;;;;13.27;97.29;17074.41;4774164;29;46369;-87
2022/12/30 11:59:53;;;;;;;;;0.00;0.00;;;;;12.94;97.41;17972.81;4782598;29;45484;-86
2022/12/30 12:02:32;;;;;;;;;0.00;0.00;;;;;13.26;97.48;17637.59;4781478;29;45543;-87
2022/12/30 12:04:58;;;;;;;;;0.00;0.00;;;;;13.26;97.91;19716.94;4764735;29;48387;-87
2022/12/30 12:07:46;;;;;;;;;0.67;0.67;;;;;13.34;97.85;19913.69;4766814;29;45824;-86
2022/12/30 12:10:11;;;;;;;;;0.00;0.00;;;;;13.47;98.41;21926.19;4810937;29;45473;-87
2022/12/30 12:13:09;;;;;;;;;2.00;0.00;;;;;13.38;97.68;19540.09;4852433;29;45432;-87
2022/12/30 12:15:41;;;;;;;;;0.00;0.00;;;;;13.38;97.91;19634.72;4814487;29;45656;-92
2022/12/30 12:18:34;;;;;;;;;0.67;0.00;;;;;13.66;97.31;16717.47;4805068;29;45916;-89
2022/12/30 12:21:26;;;;;;;;;0.00;0.00;;;;;13.72;97.40;17183.50;4812633;29;45589;-89
2022/12/30 12:24:16;;;;;;;;;0.00;0.00;;;;;13.75;97.14;16560.28;4796297;29;45541;-88
2022/12/30 12:27:02;;;;;;;;;0.33;0.00;;;;;13.82;97.47;17637.88;4809899;29;46073;-84
2022/12/30 12:29:28;;;;;;;;;0.00;0.00;;;;;13.64;97.14;16228.97;4810652;29;45629;-84
2022/12/30 12:31:59;;;;;;;;;0.00;0.00;;;;;13.93;97.41;17119.69;4808728;29;45510;-85
2022/12/30 12:34:38;;;;;;;;;0.33;0.00;;;;;14.01;97.00;16313.91;4815512;29;45445;-84
2022/12/30 12:37:11;;;;;;;;;0.00;0.00;;;;;14.07;97.24;16596.56;4813461;29;45516;-85